CheckWX is a tool to help pilots better visualize weather data.  It is not intended as a substitute for an official pre-flight weather briefing.

06:59:06 UTC

KVNY TAF
Van Nuys Airport
Van Nuys, California, USA
KVNY 210522Z 2106/2206 VRB03KT P6SM SKC FM212100 13008KT P6SM SKC FM220200 VRB03KT P6SM SKC

Sep-21@
06:00 UTC

Sep-21 @ 06:00 UTC

Sep-21@
21:00 UTC

Sep-21 @ 21:00 UTC

KVNY 210522Z 2106/2206 VRB03KT P6SM SKC
Wind
  • Variable at 3 KTS
Cloud Levels
  • Clear skies

Sep-21@
21:00 UTC

Sep-21 @ 21:00 UTC

Sep-22@
02:00 UTC

Sep-22 @ 02:00 UTC

FM212100 13008KT P6SM SKC

From

From Standard forecast or significant change

Wind
  • 130° at 8 KTS
Cloud Levels
  • Clear skies

Sep-22@
02:00 UTC

Sep-22 @ 02:00 UTC

Sep-22@
06:00 UTC

Sep-22 @ 06:00 UTC

FM220200 VRB03KT P6SM SKC

From

From Standard forecast or significant change

Wind
  • Variable at 3 KTS
Cloud Levels
  • Clear skies